createdAt,value
2022-10-30T00:00:00.961Z,18.77
2022-10-30T00:01:00.929Z,18.83
2022-10-30T00:02:01.059Z,18.78
2022-10-30T00:03:01.531Z,18.74
2022-10-30T00:04:00.901Z,18.83
2022-10-30T00:05:00.884Z,18.70
2022-10-30T00:06:00.891Z,18.68
2022-10-30T00:07:00.864Z,18.70
2022-10-30T00:08:01.103Z,18.70
2022-10-30T00:09:00.850Z,18.70
2022-10-30T00:10:00.842Z,18.71
2022-10-30T00:11:00.817Z,18.73
2022-10-30T00:12:00.839Z,18.75
2022-10-30T00:13:00.795Z,18.70
2022-10-30T00:14:00.786Z,18.71
2022-10-30T00:15:00.774Z,18.63
2022-10-30T00:16:00.778Z,18.63
2022-10-30T00:17:00.774Z,18.63
2022-10-30T00:18:01.049Z,18.56
2022-10-30T00:19:00.729Z,18.59
2022-10-30T00:20:00.722Z,18.59
2022-10-30T00:22:33.673Z,18.58
2022-10-30T00:23:33.657Z,18.58
2022-10-30T00:24:33.642Z,18.58
2022-10-30T00:25:33.627Z,18.71
2022-10-30T00:26:33.629Z,18.60
2022-10-30T00:27:33.642Z,18.60
2022-10-30T00:28:33.595Z,18.59
2022-10-30T00:29:33.582Z,18.59
2022-10-30T00:30:33.584Z,18.55
2022-10-30T00:31:33.565Z,18.44
2022-10-30T00:32:33.562Z,18.50
2022-10-30T00:33:33.548Z,18.47
2022-10-30T00:34:33.528Z,18.40
2022-10-30T00:35:33.541Z,18.41
2022-10-30T00:36:41.101Z,18.40
2022-10-30T00:37:33.502Z,18.40
2022-10-30T00:38:33.491Z,18.43
2022-10-30T00:39:33.469Z,18.35
2022-10-30T00:40:33.467Z,18.35
2022-10-30T00:41:33.448Z,18.33
2022-10-30T00:42:33.439Z,18.33
2022-10-30T00:43:33.467Z,18.29
2022-10-30T00:44:33.427Z,18.22
2022-10-30T00:45:33.405Z,18.29
2022-10-30T00:46:33.390Z,18.20
2022-10-30T00:47:33.384Z,18.25
2022-10-30T00:48:33.384Z,18.22
2022-10-30T00:49:33.368Z,18.22
2022-10-30T00:50:33.350Z,18.11
2022-10-30T00:51:33.341Z,18.08
2022-10-30T00:52:33.324Z,18.11
2022-10-30T00:53:33.334Z,18.11
2022-10-30T00:54:33.320Z,18.19
2022-10-30T00:55:33.314Z,18.07
2022-10-30T00:56:33.281Z,18.04
2022-10-30T00:57:33.272Z,18.10
2022-10-30T00:58:33.260Z,18.11
2022-10-30T00:59:33.287Z,18.07
2022-10-30T01:00:33.238Z,18.10
2022-10-30T01:01:33.360Z,18.03
2022-10-30T01:02:33.350Z,18.00
2022-10-30T01:03:33.202Z,18.04
2022-10-30T01:04:33.200Z,18.03
2022-10-30T01:05:33.197Z,17.95
2022-10-30T01:06:33.174Z,17.89
2022-10-30T01:07:33.159Z,17.87
2022-10-30T01:08:33.243Z,17.89
2022-10-30T01:09:33.150Z,17.94
2022-10-30T01:10:33.135Z,17.83
2022-10-30T01:11:33.121Z,17.89
2022-10-30T01:12:33.104Z,17.89
2022-10-30T01:13:33.093Z,17.98
2022-10-30T01:14:33.095Z,17.97
2022-10-30T01:15:33.094Z,17.92
2022-10-30T01:16:33.072Z,17.92
2022-10-30T01:17:33.053Z,17.92
2022-10-30T01:18:33.039Z,17.95
2022-10-30T01:19:33.034Z,17.95
2022-10-30T01:20:33.020Z,18.03
2022-10-30T01:21:33.006Z,17.89
2022-10-30T01:22:33.007Z,17.97
2022-10-30T01:23:32.981Z,17.98
2022-10-30T01:24:33.002Z,17.90
2022-10-30T01:25:32.957Z,17.94
2022-10-30T01:26:32.946Z,17.85
2022-10-30T01:27:32.938Z,17.94
2022-10-30T01:28:32.945Z,17.92
2022-10-30T01:29:32.917Z,17.79
2022-10-30T01:30:32.908Z,17.82
2022-10-30T01:31:32.916Z,17.89
2022-10-30T01:32:32.877Z,17.80
2022-10-30T01:33:32.875Z,17.82
2022-10-30T01:34:32.924Z,17.82
2022-10-30T01:35:32.858Z,17.80
2022-10-30T01:36:32.834Z,17.72
2022-10-30T01:37:32.826Z,17.72
2022-10-30T01:38:32.813Z,17.71
2022-10-30T01:39:32.806Z,17.76
2022-10-30T01:40:32.819Z,17.64
2022-10-30T01:41:32.802Z,17.65
2022-10-30T01:42:32.771Z,17.67
2022-10-30T01:43:32.763Z,17.78
2022-10-30T01:44:32.744Z,17.70
2022-10-30T01:45:32.794Z,17.68
2022-10-30T01:46:32.729Z,17.63
2022-10-30T01:47:32.734Z,17.60
2022-10-30T01:48:32.704Z,17.64
2022-10-30T01:49:32.691Z,17.60
2022-10-30T01:50:32.699Z,17.59
2022-10-30T01:51:32.670Z,17.60
2022-10-30T01:52:32.654Z,17.59
2022-10-30T01:53:32.646Z,17.57
2022-10-30T01:54:32.631Z,17.54
2022-10-30T01:55:32.635Z,17.51
2022-10-30T01:56:32.633Z,17.34
2022-10-30T01:57:32.601Z,17.36
2022-10-30T01:58:32.598Z,17.36
2022-10-30T01:59:32.580Z,17.45
2022-10-30T02:00:32.573Z,17.36
2022-10-30T02:01:32.702Z,17.48
2022-10-30T02:02:32.706Z,17.49
2022-10-30T02:03:32.561Z,17.48
2022-10-30T02:04:32.520Z,17.34
2022-10-30T02:05:32.519Z,17.33
2022-10-30T02:06:32.516Z,17.36
2022-10-30T02:07:32.497Z,17.41
2022-10-30T02:08:32.493Z,17.42
2022-10-30T02:09:32.489Z,17.38
2022-10-30T02:10:32.461Z,17.38
2022-10-30T02:11:32.446Z,17.38
2022-10-30T02:12:32.430Z,17.38
2022-10-30T02:13:32.448Z,17.31
2022-10-30T02:14:32.413Z,17.34
2022-10-30T02:15:32.404Z,17.24
2022-10-30T02:16:32.387Z,17.22
2022-10-30T02:17:32.381Z,17.26
2022-10-30T02:18:32.424Z,17.26
2022-10-30T02:19:32.379Z,17.14
2022-10-30T02:20:32.340Z,17.08
2022-10-30T02:21:32.339Z,17.14
2022-10-30T02:22:32.415Z,17.09
2022-10-30T02:23:32.310Z,16.94
2022-10-30T02:24:32.316Z,16.94
2022-10-30T02:25:32.289Z,16.91
2022-10-30T02:26:32.275Z,16.89
2022-10-30T02:27:32.265Z,16.89
2022-10-30T02:28:32.267Z,16.87
2022-10-30T02:29:32.245Z,16.84
2022-10-30T02:30:32.246Z,16.84
2022-10-30T02:31:32.236Z,16.79
2022-10-30T02:32:32.206Z,16.76
2022-10-30T02:33:32.232Z,16.74
2022-10-30T02:34:32.195Z,16.68
2022-10-30T02:35:32.195Z,16.61
2022-10-30T02:36:32.183Z,16.64
2022-10-30T02:37:32.153Z,16.64
2022-10-30T02:38:32.147Z,16.58
2022-10-30T02:39:32.140Z,16.51
2022-10-30T02:40:32.127Z,16.54
2022-10-30T02:41:32.126Z,16.50
2022-10-30T02:42:32.094Z,16.38
2022-10-30T02:43:32.085Z,16.39
2022-10-30T02:44:32.090Z,16.38
2022-10-30T02:45:32.062Z,16.36
2022-10-30T02:46:32.047Z,16.31
2022-10-30T02:47:32.048Z,16.31
2022-10-30T02:48:32.056Z,16.28
2022-10-30T02:49:32.032Z,16.28
2022-10-30T02:50:32.010Z,16.21
2022-10-30T02:51:32.027Z,16.21
2022-10-30T02:52:31.986Z,16.16
2022-10-30T02:53:31.998Z,16.17
2022-10-30T02:54:31.988Z,16.08
2022-10-30T02:55:31.981Z,16.10
2022-10-30T02:56:31.938Z,16.08
2022-10-30T02:57:31.928Z,16.05
2022-10-30T02:58:31.915Z,15.98
2022-10-30T02:59:31.920Z,15.91
2022-10-30T03:00:31.894Z,15.88
2022-10-30T03:01:32.083Z,15.88
2022-10-30T03:02:31.874Z,15.86
2022-10-30T03:03:31.865Z,15.91
2022-10-30T03:04:31.852Z,15.94
2022-10-30T03:05:31.852Z,15.95
2022-10-30T03:06:31.834Z,15.84
2022-10-30T03:07:31.840Z,15.84
2022-10-30T03:08:31.807Z,15.86
2022-10-30T03:09:31.794Z,15.75
2022-10-30T03:10:31.783Z,15.70
2022-10-30T03:11:31.787Z,15.70
2022-10-30T03:12:31.778Z,15.80
2022-10-30T03:13:31.750Z,15.72
2022-10-30T03:14:31.738Z,15.76
2022-10-30T03:15:31.736Z,15.73
2022-10-30T03:16:31.742Z,15.72
2022-10-30T03:17:31.757Z,15.64
2022-10-30T03:18:31.695Z,15.62
2022-10-30T03:19:31.717Z,15.64
2022-10-30T03:20:31.670Z,15.68
2022-10-30T03:21:31.666Z,15.62
2022-10-30T03:22:31.658Z,15.64
2022-10-30T03:23:31.691Z,15.62
2022-10-30T03:24:31.625Z,15.62
2022-10-30T03:25:31.626Z,15.64
2022-10-30T03:26:31.615Z,15.57
2022-10-30T03:27:31.595Z,15.59
2022-10-30T03:28:31.583Z,15.58
2022-10-30T03:29:31.583Z,15.52
2022-10-30T03:30:31.565Z,15.62
2022-10-30T03:31:31.577Z,15.55
2022-10-30T03:32:31.559Z,15.54
2022-10-30T03:33:31.553Z,15.49
2022-10-30T03:34:31.517Z,15.55
2022-10-30T03:35:31.519Z,15.64
2022-10-30T03:36:31.495Z,15.61
2022-10-30T03:37:31.483Z,15.54
2022-10-30T03:38:31.474Z,15.47
2022-10-30T03:39:31.482Z,15.46
2022-10-30T03:40:31.460Z,15.46
2022-10-30T03:41:31.446Z,15.49
2022-10-30T03:42:31.425Z,15.44
2022-10-30T03:43:31.422Z,15.39
2022-10-30T03:44:31.402Z,15.42
2022-10-30T03:45:31.399Z,15.42
2022-10-30T03:46:31.394Z,15.37
2022-10-30T03:47:31.383Z,15.42
2022-10-30T03:48:31.367Z,15.49
2022-10-30T03:49:31.353Z,15.46
2022-10-30T03:50:31.337Z,15.49
2022-10-30T03:51:31.437Z,15.46
2022-10-30T03:52:31.343Z,15.49
2022-10-30T03:53:31.323Z,15.40
2022-10-30T03:54:31.296Z,15.44
2022-10-30T03:55:31.306Z,15.42
2022-10-30T03:56:31.291Z,15.46
2022-10-30T03:57:31.264Z,15.46
2022-10-30T03:58:31.262Z,15.46
2022-10-30T03:59:31.250Z,15.44
2022-10-30T04:00:31.240Z,15.46
2022-10-30T04:01:31.440Z,15.46
2022-10-30T04:02:31.204Z,15.42
2022-10-30T04:03:31.197Z,15.44
2022-10-30T04:04:31.186Z,15.46
2022-10-30T04:05:31.207Z,15.49
2022-10-30T04:06:31.161Z,15.47
2022-10-30T04:07:31.158Z,15.44
2022-10-30T04:08:31.138Z,15.47
2022-10-30T04:09:31.136Z,15.46
2022-10-30T04:10:31.116Z,15.47
2022-10-30T04:11:31.215Z,15.47
2022-10-30T04:12:31.114Z,15.44
2022-10-30T04:13:31.081Z,15.58
2022-10-30T04:14:31.071Z,15.51
2022-10-30T04:15:31.065Z,15.55
2022-10-30T04:16:31.052Z,15.62
2022-10-30T04:17:31.077Z,15.64
2022-10-30T04:18:31.025Z,15.68
2022-10-30T04:19:31.022Z,15.59
2022-10-30T04:20:31.006Z,15.68
2022-10-30T04:21:30.996Z,15.64
2022-10-30T04:22:30.984Z,15.67
2022-10-30T04:23:30.991Z,15.65
2022-10-30T04:24:30.972Z,15.64
2022-10-30T04:25:30.963Z,15.70
2022-10-30T04:26:30.954Z,15.59
2022-10-30T04:27:30.964Z,15.64
2022-10-30T04:28:30.923Z,15.62
2022-10-30T04:29:30.919Z,15.61
2022-10-30T04:30:30.895Z,15.62
2022-10-30T04:31:30.885Z,15.57
2022-10-30T04:32:30.871Z,15.57
2022-10-30T04:33:30.878Z,15.59
2022-10-30T04:34:30.855Z,15.57
2022-10-30T04:35:30.840Z,15.59
2022-10-30T04:36:30.827Z,15.54
2022-10-30T04:37:30.817Z,15.61
2022-10-30T04:38:30.805Z,15.58
2022-10-30T04:39:30.816Z,15.55
2022-10-30T04:40:30.780Z,15.55
2022-10-30T04:41:30.777Z,15.58
2022-10-30T04:42:30.762Z,15.62
2022-10-30T04:43:30.803Z,15.49
2022-10-30T04:44:30.737Z,15.47
2022-10-30T04:45:30.735Z,15.58
2022-10-30T04:46:30.716Z,15.46
2022-10-30T04:47:30.706Z,15.52
2022-10-30T04:48:30.692Z,15.46
2022-10-30T04:49:30.694Z,15.55
2022-10-30T04:50:30.670Z,15.49
2022-10-30T04:51:30.669Z,15.57
2022-10-30T04:52:30.661Z,15.49
2022-10-30T04:53:30.641Z,15.46
2022-10-30T04:54:30.633Z,15.44
2022-10-30T04:55:30.617Z,15.49
2022-10-30T04:56:30.621Z,15.61
2022-10-30T04:57:30.597Z,15.49
2022-10-30T04:58:30.594Z,15.46
2022-10-30T04:59:30.590Z,15.46
2022-10-30T05:00:30.561Z,15.47
2022-10-30T05:01:30.696Z,15.47
2022-10-30T05:02:30.743Z,15.47
2022-10-30T05:03:30.542Z,15.39
2022-10-30T05:04:30.517Z,15.33
2022-10-30T05:05:30.501Z,15.44
2022-10-30T05:06:30.512Z,15.36
2022-10-30T05:07:30.483Z,15.31
2022-10-30T05:08:30.477Z,15.35
2022-10-30T05:09:30.468Z,15.24
2022-10-30T05:10:30.452Z,15.27
2022-10-30T05:11:30.443Z,15.24
2022-10-30T05:12:30.428Z,15.18
2022-10-30T05:13:30.411Z,15.25
2022-10-30T05:14:30.411Z,15.19
2022-10-30T05:15:30.413Z,15.21
2022-10-30T05:16:30.396Z,15.21
2022-10-30T05:18:30.363Z,15.14
2022-10-30T05:19:30.348Z,15.11
2022-10-30T05:20:30.351Z,15.07
2022-10-30T05:21:30.331Z,15.06
2022-10-30T05:22:30.315Z,15.07
2022-10-30T05:23:30.308Z,15.00
2022-10-30T05:24:30.296Z,14.99
2022-10-30T05:25:30.299Z,15.04
2022-10-30T05:26:30.287Z,14.94
2022-10-30T05:27:30.257Z,14.97
2022-10-30T05:28:30.253Z,14.89
2022-10-30T05:29:30.238Z,14.89
2022-10-30T05:30:30.230Z,14.82
2022-10-30T05:31:30.240Z,14.82
2022-10-30T05:32:30.220Z,14.77
2022-10-30T05:33:30.196Z,14.66
2022-10-30T05:34:30.188Z,14.72
2022-10-30T05:35:30.168Z,14.79
2022-10-30T05:36:30.175Z,14.73
2022-10-30T05:37:30.156Z,14.58
2022-10-30T05:38:30.141Z,14.58
2022-10-30T05:39:30.130Z,14.66
2022-10-30T05:40:30.116Z,14.54
2022-10-30T05:41:30.115Z,14.51
2022-10-30T05:42:30.093Z,14.45
2022-10-30T05:43:30.106Z,14.40
2022-10-30T05:44:55.067Z,14.51
2022-10-30T05:45:31.057Z,14.48
2022-10-30T05:46:30.047Z,14.44
2022-10-30T05:47:30.070Z,14.50
2022-10-30T05:48:30.050Z,14.47
2022-10-30T05:49:30.030Z,14.43
2022-10-30T05:50:30.009Z,14.41
2022-10-30T05:51:29.992Z,14.43
2022-10-30T05:52:29.978Z,14.37
2022-10-30T05:53:29.976Z,14.36
2022-10-30T05:54:29.976Z,14.36
2022-10-30T05:55:29.944Z,14.33
2022-10-30T05:56:29.935Z,14.33
2022-10-30T05:57:29.930Z,14.30
2022-10-30T05:58:29.922Z,14.33
2022-10-30T05:59:29.901Z,14.28
2022-10-30T06:00:29.907Z,14.30
2022-10-30T06:01:30.005Z,14.28
2022-10-30T06:02:29.931Z,14.30
2022-10-30T06:03:29.893Z,14.29
2022-10-30T06:04:29.853Z,14.20
2022-10-30T06:05:29.852Z,14.25
2022-10-30T06:06:29.826Z,14.32
2022-10-30T06:07:29.811Z,14.25
2022-10-30T06:08:29.815Z,14.26
2022-10-30T06:09:29.803Z,14.22
2022-10-30T06:10:29.788Z,14.22
2022-10-30T06:11:29.781Z,14.18
2022-10-30T06:12:29.763Z,14.17
2022-10-30T06:13:29.745Z,14.20
2022-10-30T06:14:29.755Z,14.18
2022-10-30T06:15:29.726Z,14.07
2022-10-30T06:16:29.722Z,14.15
2022-10-30T06:17:29.712Z,14.23
2022-10-30T06:18:29.695Z,14.22
2022-10-30T06:19:29.707Z,14.15
2022-10-30T06:20:29.678Z,14.17
2022-10-30T06:21:29.672Z,14.15
2022-10-30T06:22:29.656Z,14.17
2022-10-30T06:23:29.655Z,14.17
2022-10-30T06:24:29.624Z,14.10
2022-10-30T06:25:29.613Z,14.08
2022-10-30T06:26:29.623Z,14.11
2022-10-30T06:27:29.591Z,14.10
2022-10-30T06:28:29.596Z,14.15
2022-10-30T06:29:29.571Z,14.05
2022-10-30T06:30:29.559Z,14.05
2022-10-30T06:31:29.547Z,14.00
2022-10-30T06:32:29.578Z,13.92
2022-10-30T06:33:29.527Z,13.96
2022-10-30T06:34:29.516Z,13.93
2022-10-30T06:35:29.522Z,13.92
2022-10-30T06:36:29.495Z,13.92
2022-10-30T06:37:29.489Z,13.93
2022-10-30T06:38:29.500Z,13.95
2022-10-30T06:39:29.465Z,13.90
2022-10-30T06:40:29.455Z,13.92
2022-10-30T06:41:30.669Z,13.89
2022-10-30T06:42:29.433Z,13.95
2022-10-30T06:43:29.415Z,13.89
2022-10-30T06:44:29.424Z,13.90
2022-10-30T06:45:29.392Z,13.87
2022-10-30T06:46:33.406Z,13.92
2022-10-30T06:47:29.372Z,13.95
2022-10-30T06:48:29.389Z,13.86
2022-10-30T06:49:29.361Z,13.95
2022-10-30T06:50:36.448Z,14.00
2022-10-30T06:51:29.332Z,14.07
2022-10-30T06:52:29.327Z,14.08
2022-10-30T06:53:29.309Z,14.05
2022-10-30T06:54:29.312Z,14.03
2022-10-30T06:55:29.289Z,14.05
2022-10-30T06:56:29.294Z,14.14
2022-10-30T06:57:29.261Z,14.00
2022-10-30T06:58:29.276Z,14.05
2022-10-30T06:59:29.246Z,14.12
2022-10-30T07:00:29.238Z,14.08
2022-10-30T07:01:29.263Z,14.10
2022-10-30T07:02:29.293Z,14.10
2022-10-30T07:03:29.230Z,14.17
2022-10-30T07:04:29.204Z,14.15
2022-10-30T07:05:29.171Z,14.14
2022-10-30T07:06:29.184Z,14.18
2022-10-30T07:07:29.152Z,14.18
2022-10-30T07:08:29.162Z,14.15
2022-10-30T07:09:29.140Z,14.14
2022-10-30T07:10:29.174Z,14.23
2022-10-30T07:11:29.109Z,14.22
2022-10-30T07:12:29.099Z,14.17
2022-10-30T07:13:29.085Z,14.29
2022-10-30T07:14:29.089Z,14.23
2022-10-30T07:15:29.158Z,14.18
2022-10-30T07:16:29.059Z,14.26
2022-10-30T07:17:29.043Z,14.23
2022-10-30T07:18:29.033Z,14.18
2022-10-30T07:19:29.024Z,14.23
2022-10-30T07:20:29.145Z,14.33
2022-10-30T07:21:28.997Z,14.37
2022-10-30T07:22:29.007Z,14.36
2022-10-30T07:23:28.985Z,14.40
2022-10-30T07:24:28.969Z,14.35
2022-10-30T07:25:29.028Z,14.41
2022-10-30T07:26:28.952Z,14.37
2022-10-30T07:27:28.935Z,14.51
2022-10-30T07:28:28.921Z,14.59
2022-10-30T07:29:28.918Z,14.54
2022-10-30T07:30:28.907Z,14.66
2022-10-30T07:31:41.753Z,14.68
2022-10-30T07:32:29.880Z,14.62
2022-10-30T07:33:28.866Z,14.66
2022-10-30T07:34:28.859Z,14.65
2022-10-30T07:35:28.843Z,14.69
2022-10-30T07:36:28.864Z,14.77
2022-10-30T07:37:28.857Z,14.68
2022-10-30T07:38:28.836Z,14.69
2022-10-30T07:39:28.801Z,14.79
2022-10-30T07:40:28.793Z,14.92
2022-10-30T07:41:28.788Z,14.91
2022-10-30T07:42:28.764Z,14.94
2022-10-30T07:43:28.760Z,15.00
2022-10-30T07:44:28.747Z,15.02
2022-10-30T07:45:28.724Z,14.99
2022-10-30T07:46:28.720Z,15.07
2022-10-30T07:47:28.712Z,15.11
2022-10-30T07:48:28.725Z,15.22
2022-10-30T07:49:28.689Z,15.21
2022-10-30T07:50:28.779Z,15.28
2022-10-30T07:51:28.665Z,15.19
2022-10-30T07:52:28.649Z,15.40
2022-10-30T07:53:28.643Z,15.37
2022-10-30T07:54:28.661Z,15.43
2022-10-30T07:55:28.618Z,15.49
2022-10-30T07:56:28.621Z,15.58
2022-10-30T07:57:28.600Z,15.76
2022-10-30T07:58:28.591Z,15.83
2022-10-30T07:59:28.592Z,15.94
2022-10-30T08:00:28.658Z,16.02
2022-10-30T08:01:28.720Z,16.23
2022-10-30T08:02:28.754Z,16.28
2022-10-30T08:03:28.536Z,16.53
2022-10-30T08:04:28.526Z,16.54
2022-10-30T08:05:29.943Z,16.58
2022-10-30T08:06:28.499Z,16.66
2022-10-30T08:07:28.497Z,16.78
2022-10-30T08:08:28.480Z,16.97
2022-10-30T08:09:28.478Z,17.05
2022-10-30T08:10:28.470Z,17.33
2022-10-30T08:11:28.447Z,17.63
2022-10-30T08:12:28.438Z,17.82
2022-10-30T08:13:28.422Z,18.11
2022-10-30T08:14:28.416Z,18.41
2022-10-30T08:15:28.398Z,18.58
2022-10-30T08:16:28.386Z,18.60
2022-10-30T08:17:28.374Z,18.66
2022-10-30T08:18:28.391Z,18.83
2022-10-30T08:19:28.365Z,18.83
2022-10-30T08:20:28.339Z,18.95
2022-10-30T08:21:28.330Z,19.11
2022-10-30T08:22:28.340Z,19.16
2022-10-30T08:23:28.318Z,19.15
2022-10-30T08:24:28.307Z,19.15
2022-10-30T08:25:28.311Z,19.18
2022-10-30T08:26:28.294Z,19.16
2022-10-30T08:27:28.270Z,19.11
2022-10-30T08:28:31.680Z,19.04
2022-10-30T08:29:28.248Z,18.90
2022-10-30T08:30:28.233Z,18.93
2022-10-30T08:31:28.214Z,18.86
2022-10-30T08:32:28.220Z,18.73
2022-10-30T08:33:28.203Z,18.65
2022-10-30T08:34:28.194Z,18.78
2022-10-30T08:35:28.202Z,18.75
2022-10-30T08:36:28.175Z,18.84
2022-10-30T08:37:28.151Z,18.84
2022-10-30T08:38:28.146Z,18.80
2022-10-30T08:39:28.131Z,18.81
2022-10-30T08:40:28.136Z,18.75
2022-10-30T08:41:28.136Z,18.77
2022-10-30T08:42:28.118Z,18.74
2022-10-30T08:43:28.084Z,18.77
2022-10-30T08:44:28.089Z,18.86
2022-10-30T08:45:31.022Z,18.99
2022-10-30T08:46:28.057Z,18.99
2022-10-30T08:47:28.039Z,18.98
2022-10-30T08:48:28.034Z,19.00
2022-10-30T08:49:28.020Z,19.02
2022-10-30T08:50:28.041Z,19.08
2022-10-30T08:51:28.003Z,19.11
2022-10-30T08:52:27.994Z,19.11
2022-10-30T08:53:27.984Z,19.14
2022-10-30T08:54:27.963Z,19.18
2022-10-30T08:55:27.959Z,19.08
2022-10-30T08:56:27.947Z,18.98
2022-10-30T08:57:27.939Z,18.98
2022-10-30T08:58:27.940Z,18.92
2022-10-30T08:59:27.941Z,18.89
2022-10-30T09:00:27.916Z,18.83
2022-10-30T09:01:28.043Z,18.78
2022-10-30T09:02:28.007Z,18.89
2022-10-30T09:03:27.862Z,18.92
2022-10-30T09:04:27.863Z,18.89
2022-10-30T09:05:27.843Z,18.98
2022-10-30T09:06:27.837Z,19.02
2022-10-30T09:07:27.832Z,19.02
2022-10-30T09:08:27.817Z,19.18
2022-10-30T09:09:27.803Z,19.16
2022-10-30T09:10:27.790Z,19.26
2022-10-30T09:11:27.783Z,19.24
2022-10-30T09:12:27.789Z,19.27
2022-10-30T09:13:27.759Z,19.31
2022-10-30T09:14:27.767Z,19.41
2022-10-30T09:15:27.742Z,19.52
2022-10-30T09:16:27.722Z,19.45
2022-10-30T09:17:27.710Z,19.51
2022-10-30T09:18:27.708Z,19.51
2022-10-30T09:19:27.693Z,19.63
2022-10-30T09:20:27.683Z,19.66
2022-10-30T09:21:27.676Z,19.79
2022-10-30T09:22:27.668Z,19.88
2022-10-30T09:23:27.654Z,19.88
2022-10-30T09:24:27.639Z,19.84
2022-10-30T09:25:27.625Z,19.95
2022-10-30T09:26:27.611Z,19.96
2022-10-30T09:27:27.615Z,20.02
2022-10-30T09:28:27.611Z,20.03
2022-10-30T09:29:27.582Z,20.06
2022-10-30T09:30:27.587Z,20.06
2022-10-30T09:31:27.562Z,20.21
2022-10-30T09:32:27.549Z,20.29
2022-10-30T09:33:27.545Z,20.36
2022-10-30T09:35:27.521Z,20.51
2022-10-30T09:36:27.501Z,20.58
2022-10-30T09:37:27.502Z,20.55
2022-10-30T09:38:27.500Z,20.58
2022-10-30T09:39:27.470Z,20.56
2022-10-30T09:40:27.456Z,20.52
2022-10-30T09:41:27.457Z,20.51
2022-10-30T09:42:27.437Z,20.50
2022-10-30T09:43:27.431Z,20.28
2022-10-30T09:44:27.432Z,20.26
2022-10-30T09:45:30.125Z,20.21
2022-10-30T09:46:27.408Z,20.21
2022-10-30T09:47:27.381Z,20.24
2022-10-30T09:48:27.370Z,20.29
2022-10-30T09:49:27.367Z,20.37
2022-10-30T09:50:27.361Z,20.51
2022-10-30T09:51:27.349Z,20.48
2022-10-30T09:52:27.330Z,20.37
2022-10-30T09:53:27.322Z,20.25
2022-10-30T09:54:27.302Z,20.32
2022-10-30T09:55:27.313Z,20.29
2022-10-30T09:56:27.286Z,20.29
2022-10-30T09:57:27.268Z,20.43
2022-10-30T09:58:27.258Z,20.50
2022-10-30T09:59:27.262Z,20.65
2022-10-30T10:00:27.249Z,20.52
2022-10-30T10:01:27.337Z,20.50
2022-10-30T10:02:27.369Z,20.59
2022-10-30T10:03:27.220Z,20.47
2022-10-30T10:04:27.447Z,20.48
2022-10-30T10:05:27.195Z,20.39
2022-10-30T10:06:27.172Z,20.44
2022-10-30T10:07:27.191Z,20.51
2022-10-30T10:08:27.149Z,20.48
2022-10-30T10:09:27.136Z,20.47
2022-10-30T10:10:27.135Z,20.51
2022-10-30T10:11:27.123Z,20.48
2022-10-30T10:12:27.100Z,20.52
2022-10-30T10:13:27.096Z,20.51
2022-10-30T10:14:27.084Z,20.55
2022-10-30T10:15:27.108Z,20.66
2022-10-30T10:16:27.061Z,20.65
2022-10-30T10:17:27.066Z,20.67
2022-10-30T10:18:27.111Z,20.75
2022-10-30T10:19:27.029Z,20.84
2022-10-30T10:20:27.014Z,20.87
2022-10-30T10:21:27.016Z,20.85
2022-10-30T10:22:26.997Z,20.82
2022-10-30T10:23:27.027Z,20.87
2022-10-30T10:24:26.971Z,20.97
2022-10-30T10:25:26.961Z,20.96
2022-10-30T10:26:26.958Z,20.99
2022-10-30T10:27:26.940Z,21.05
2022-10-30T10:28:26.936Z,21.02
2022-10-30T10:29:26.921Z,21.20
2022-10-30T10:30:26.904Z,21.12
2022-10-30T10:31:26.908Z,21.25
2022-10-30T10:32:26.894Z,21.22
2022-10-30T10:33:26.879Z,21.24
2022-10-30T10:34:26.881Z,21.22
2022-10-30T10:35:26.857Z,21.42
2022-10-30T10:36:26.844Z,21.33
2022-10-30T10:37:26.836Z,21.45
2022-10-30T10:38:26.822Z,21.39
2022-10-30T10:39:26.810Z,21.42
2022-10-30T10:40:26.792Z,21.48
2022-10-30T10:41:26.794Z,21.42
2022-10-30T10:42:26.777Z,21.43
2022-10-30T10:43:26.760Z,21.39
2022-10-30T10:44:26.756Z,21.42
2022-10-30T10:45:26.738Z,21.37
2022-10-30T10:46:26.724Z,21.42
2022-10-30T10:47:26.717Z,21.39
2022-10-30T10:48:26.710Z,21.36
2022-10-30T10:49:26.695Z,21.40
2022-10-30T10:50:26.709Z,21.39
2022-10-30T10:51:26.678Z,21.33
2022-10-30T10:52:26.667Z,21.39
2022-10-30T10:53:26.676Z,21.37
2022-10-30T10:54:26.643Z,21.45
2022-10-30T10:55:26.627Z,21.43
2022-10-30T10:56:26.619Z,21.48
2022-10-30T10:57:26.608Z,21.46
2022-10-30T10:58:26.610Z,21.61
2022-10-30T10:59:26.585Z,21.60
2022-10-30T11:00:26.577Z,21.64
2022-10-30T11:01:26.645Z,21.72
2022-10-30T11:02:26.755Z,21.69
2022-10-30T11:03:26.554Z,21.89
2022-10-30T11:04:26.525Z,21.79
2022-10-30T11:05:26.520Z,21.83
2022-10-30T11:06:26.527Z,21.83
2022-10-30T11:07:26.508Z,21.85
2022-10-30T11:08:26.495Z,21.99
2022-10-30T11:09:26.482Z,21.95
2022-10-30T11:10:26.467Z,21.93
2022-10-30T11:11:26.491Z,22.02
2022-10-30T11:12:28.549Z,22.04
2022-10-30T11:13:27.440Z,22.13
2022-10-30T11:14:26.418Z,22.15
2022-10-30T11:15:26.411Z,22.17
2022-10-30T11:16:26.415Z,22.22
2022-10-30T11:17:26.394Z,22.22
2022-10-30T11:18:26.382Z,22.22
2022-10-30T11:19:26.376Z,22.23
2022-10-30T11:20:26.352Z,22.22
2022-10-30T11:21:26.350Z,22.23
2022-10-30T11:22:26.351Z,22.22
2022-10-30T11:23:26.337Z,22.25
2022-10-30T11:24:26.340Z,22.22
2022-10-30T11:25:30.185Z,22.29
2022-10-30T11:26:27.286Z,22.33
2022-10-30T11:27:26.296Z,22.41
2022-10-30T11:28:26.265Z,22.36
2022-10-30T11:29:26.255Z,22.32
2022-10-30T11:30:26.266Z,22.35
2022-10-30T11:31:26.230Z,22.35
2022-10-30T11:32:26.220Z,22.44
2022-10-30T11:33:26.244Z,22.41
2022-10-30T11:34:26.210Z,22.36
2022-10-30T11:35:26.188Z,22.39
2022-10-30T11:36:26.183Z,22.39
2022-10-30T11:37:26.165Z,22.39
2022-10-30T11:38:26.169Z,22.38
2022-10-30T11:39:26.167Z,22.41
2022-10-30T11:40:26.127Z,22.36
2022-10-30T11:41:26.119Z,22.39
2022-10-30T11:42:26.106Z,22.41
2022-10-30T11:43:26.098Z,22.43
2022-10-30T11:44:26.104Z,22.38
2022-10-30T11:45:26.084Z,22.35
2022-10-30T11:46:26.067Z,22.35
2022-10-30T11:47:26.115Z,22.32
2022-10-30T11:48:27.067Z,22.35
2022-10-30T11:49:26.035Z,22.43
2022-10-30T11:50:26.033Z,22.41
2022-10-30T11:51:26.034Z,22.44
2022-10-30T11:52:26.008Z,22.43
2022-10-30T11:53:25.985Z,22.39
2022-10-30T11:54:25.991Z,22.35
2022-10-30T11:55:25.969Z,22.41
2022-10-30T11:56:25.962Z,22.35
2022-10-30T11:57:25.941Z,22.39
2022-10-30T11:58:25.937Z,22.36
2022-10-30T11:59:25.921Z,22.43
2022-10-30T12:00:25.914Z,22.45
2022-10-30T12:01:25.936Z,22.38
2022-10-30T12:02:26.053Z,22.41
2022-10-30T12:03:25.891Z,22.45
2022-10-30T12:04:25.863Z,22.44
2022-10-30T12:05:25.894Z,22.39
2022-10-30T12:06:25.861Z,22.43
2022-10-30T12:07:25.831Z,22.41
2022-10-30T12:08:25.816Z,22.38
2022-10-30T12:09:25.831Z,22.28
2022-10-30T12:10:25.813Z,22.23
2022-10-30T12:11:25.819Z,22.23
2022-10-30T12:12:25.781Z,22.08
2022-10-30T12:13:25.778Z,22.08
2022-10-30T12:14:25.759Z,22.14
2022-10-30T12:15:25.742Z,22.15
2022-10-30T12:16:25.728Z,22.20
2022-10-30T12:17:25.720Z,22.18
2022-10-30T12:18:25.814Z,22.22
2022-10-30T12:19:25.708Z,22.13
2022-10-30T12:20:25.689Z,22.23
2022-10-30T12:21:25.672Z,22.22
2022-10-30T12:22:25.670Z,22.20
2022-10-30T12:23:25.652Z,22.23
2022-10-30T12:24:25.639Z,22.15
2022-10-30T12:25:25.664Z,22.07
2022-10-30T12:26:25.638Z,22.07
2022-10-30T12:27:25.612Z,21.98
2022-10-30T12:28:25.631Z,21.91
2022-10-30T12:29:36.490Z,21.96
2022-10-30T12:30:26.583Z,21.95
2022-10-30T12:31:25.603Z,21.93
2022-10-30T12:32:25.560Z,21.96
2022-10-30T12:33:25.552Z,21.93
2022-10-30T12:34:25.530Z,21.88
2022-10-30T12:35:25.531Z,21.93
2022-10-30T12:36:25.521Z,21.95
2022-10-30T12:37:25.509Z,21.93
2022-10-30T12:38:25.486Z,21.95
2022-10-30T12:39:25.489Z,21.95
2022-10-30T12:40:25.466Z,21.98
2022-10-30T12:41:25.475Z,21.93
2022-10-30T12:42:25.462Z,21.98
2022-10-30T12:43:25.432Z,22.08
2022-10-30T12:44:25.418Z,22.22
2022-10-30T12:45:25.411Z,22.17
2022-10-30T12:46:25.433Z,22.25
2022-10-30T12:47:25.400Z,22.30
2022-10-30T12:48:25.374Z,22.30
2022-10-30T12:49:25.366Z,22.29
2022-10-30T12:50:25.358Z,22.25
2022-10-30T12:51:32.444Z,22.22
2022-10-30T12:52:25.327Z,22.23
2022-10-30T12:53:25.332Z,22.33
2022-10-30T12:54:25.306Z,22.23
2022-10-30T12:55:25.306Z,22.23